Terminal Aerodrome Forecast
Issued by NWS Grand Junction, CO

Home | Current Version | Previous Version | Text Only | Print | Product List | Glossary On
Versions: 1 2 3 4 5 6 7 8 9 10 11 12 13 14 15 16 17 18 19 20 21 22 23 24 25 26 27
000
FTUS45 KGJT 211200 AAB
TAFGJT
TAF AMD
KGJT 211200Z 2112/2212 12010KT P6SM VCSH SCT070 BKN100
      TEMPO 2112/2116 VRB15G30KT -SHRA BKN070
     FM211600 17010KT P6SM SCT100 BKN150
     FM212000 27010KT P6SM VCTS SCT070CB SCT120
     FM220100 14012KT P6SM VCTS SCT050CB BKN080
     FM220600 08011KT P6SM VCSH SCT040 BKN080=

USA.gov is the U.S. government's official web portal to all federal, state and local government web resources and services.